Time;durP1;ratioP1;P1;durP2;ratioP2;P2;SDS_P1;SDS_P2;PMS_P1;PMS_P2;Temp;Humidity;BMP_temperature;BMP_pressure;BME280_temperature;BME280_humidity;BME280_pressure;Samples;Min_cycle;Max_cycle;Signal;HPM_P1;HPM_P2
2022/01/02 00:00:44;;;;;;;;;;;;;;;13.32;57.99;100803.84;4296240;33;19996;-88
2022/01/02 00:04:49;;;;;;;;;;;;;;;13.65;58.36;100780.22;4438702;32;804254;-88
2022/01/02 00:07:36;;;;;;;;;;;;;;;13.65;58.36;100780.22;4445116;32;20001;-87
2022/01/02 00:10:22;;;;;;;;;;;;;;;13.47;58.44;100785.09;4438258;32;20060;-88
2022/01/02 00:13:07;;;;;;;;;;;;;;;13.42;58.71;100781.50;4433506;32;19989;-88
2022/01/02 00:15:52;;;;;;;;;;;;;;;13.57;58.21;100778.34;4423131;32;20035;-87
2022/01/02 00:18:47;;;;;;;;;;;;;;;13.54;58.14;100780.88;4424565;32;20038;-87
2022/01/02 00:21:33;;;;;;;;;;;;;;;13.68;57.48;100775.06;4423863;32;19985;-86
2022/01/02 00:24:19;;;;;;;;;;;;;;;13.74;57.30;100769.13;4424452;32;20272;-86
2022/01/02 00:27:04;;;;;;;;;;;;;;;13.68;57.33;100774.19;4416091;32;20005;-88
2022/01/02 00:29:50;;;;;;;;;;;;;;;13.60;57.29;100775.81;4436894;32;19990;-89
2022/01/02 00:32:36;;;;;;;;;;;;;;;13.63;57.33;100775.87;4444905;32;19990;-88
2022/01/02 00:35:22;;;;;;;;;;;;;;;13.60;57.41;100781.00;4447955;32;19982;-88
2022/01/02 00:38:08;;;;;;;;;;;;;;;13.67;57.09;100778.53;4401528;32;20039;-87
2022/01/02 00:40:53;;;;;;;;;;;;;;;13.68;56.93;100774.19;4448895;32;20347;-87
2022/01/02 00:43:59;;;;;;;;;;;;;;;13.65;57.03;100776.75;4447274;32;19963;-87
2022/01/02 00:46:47;;;;;;;;;;;;;;;13.63;57.18;100781.94;4448180;32;20006;-87
2022/01/02 00:49:34;;;;;;;;;;;;;;;13.61;57.30;100777.53;4437264;32;20001;-86
2022/01/02 00:52:20;;;;;;;;;;;;;;;13.61;56.76;100783.63;4382216;32;19987;-87
2022/01/02 00:55:07;;;;;;;;;;;;;;;13.66;56.67;100775.91;4392712;32;19990;-86
2022/01/02 00:57:57;;;;;;;;;;;;;;;13.63;57.00;100781.06;4393794;32;19998;-87
2022/01/02 01:00:50;;;;;;;;;;;;;;;13.69;56.61;100782.06;4394261;32;20063;-87
2022/01/02 01:03:36;;;;;;;;;;;;;;;13.65;56.83;100779.34;4393954;32;19990;-87
2022/01/02 01:06:26;;;;;;;;;;;;;;;13.61;56.76;100783.63;4381558;32;19991;-87
2022/01/02 01:09:11;;;;;;;;;;;;;;;13.34;57.76;100773.56;4392970;32;20291;-87
2022/01/02 01:11:58;;;;;;;;;;;;;;;13.51;57.13;100776.50;4376422;32;20018;-88
2022/01/02 01:14:46;;;;;;;;;;;;;;;13.55;56.94;100772.22;4377885;32;19991;-87
2022/01/02 01:17:31;;;;;;;;;;;;;;;13.28;58.04;100769.97;4372277;32;19998;-88
2022/01/02 01:20:17;;;;;;;;;;;;;;;13.23;58.12;100768.09;4370999;32;19982;-87
2022/01/02 01:23:02;;;;;;;;;;;;;;;13.28;57.87;100773.44;4379043;32;20027;-87
2022/01/02 01:25:48;;;;;;;;;;;;;;;13.39;57.58;100777.13;4366099;32;20011;-87
2022/01/02 01:28:34;;;;;;;;;;;;;;;13.30;57.90;100774.34;4369145;32;19995;-87
2022/01/02 01:31:20;;;;;;;;;;;;;;;13.45;57.20;100769.44;4377396;32;19986;-87
2022/01/02 01:34:05;;;;;;;;;;;;;;;13.36;57.40;100771.88;4383973;32;20054;-86
2022/01/02 01:36:51;;;;;;;;;;;;;;;13.41;57.19;100765.03;4394996;32;20031;-87
2022/01/02 01:39:36;;;;;;;;;;;;;;;13.35;57.20;100764.91;4398915;32;20294;-88
2022/01/02 01:42:35;;;;;;;;;;;;;;;13.25;57.47;100757.78;4398894;32;19986;-88
2022/01/02 01:48:07;;;;;;;;;;;;;;;12.63;59.10;100765.09;4394071;32;19990;-88
2022/01/02 01:50:53;;;;;;;;;;;;;;;12.72;59.12;100760.09;4387245;32;19979;-88
2022/01/02 01:53:39;;;;;;;;;;;;;;;12.60;59.41;100759.81;4388118;32;19981;-89
2022/01/02 01:56:25;;;;;;;;;;;;;;;12.75;58.89;100757.56;4383042;32;20031;-89
2022/01/02 01:59:11;;;;;;;;;;;;;;;12.63;59.14;100759.88;4383884;32;19991;-89
2022/01/02 02:01:57;;;;;;;;;;;;;;;12.32;60.12;100766.97;4389819;32;20047;-88
2022/01/02 02:04:43;;;;;;;;;;;;;;;11.61;62.43;100761.69;4383613;32;20070;-89
2022/01/02 02:07:38;;;;;;;;;;;;;;;11.58;62.93;100764.19;4373946;32;20456;-88
2022/01/02 02:10:27;;;;;;;;;;;;;;;11.38;63.90;100763.66;4387397;32;19986;-88
2022/01/02 02:13:13;;;;;;;;;;;;;;;11.96;61.84;100765.22;4388051;32;20054;-88
2022/01/02 02:16:01;;;;;;;;;;;;;;;12.42;60.36;100753.38;4376761;32;19982;-89
2022/01/02 02:18:47;;;;;;;;;;;;;;;12.47;59.71;100759.53;4382034;32;20365;-89
2022/01/02 02:21:36;;;;;;;;;;;;;;;12.20;59.63;100756.31;4382708;32;20034;-89
2022/01/02 02:24:22;;;;;;;;;;;;;;;12.42;59.95;100755.09;4389975;32;20339;-88
2022/01/02 02:27:08;;;;;;;;;;;;;;;12.53;59.93;100749.28;4382483;32;20313;-87
2022/01/02 02:29:54;;;;;;;;;;;;;;;12.63;59.44;100749.50;4384925;32;20005;-87
2022/01/02 02:32:39;;;;;;;;;;;;;;;11.80;62.32;100753.53;4389969;32;20822;-87
2022/01/02 02:35:25;;;;;;;;;;;;;;;11.96;62.15;100747.06;4363856;32;19987;-87
2022/01/02 02:38:11;;;;;;;;;;;;;;;12.07;61.46;100748.22;4391915;32;20018;-88
2022/01/02 02:40:57;;;;;;;;;;;;;;;12.25;61.13;100746.88;4385399;32;20558;-89
2022/01/02 02:43:53;;;;;;;;;;;;;;;11.92;62.37;100746.97;4392659;32;19986;-88
2022/01/02 02:49:43;;;;;;;;;;;;;;;12.21;61.35;100729.50;4382907;32;20006;-88
2022/01/02 02:52:39;;;;;;;;;;;;;;;12.30;60.86;100729.72;4382955;32;20126;-89
2022/01/02 02:55:31;;;;;;;;;;;;;;;12.39;60.64;100735.13;4383391;32;20025;-89
2022/01/02 02:58:39;;;;;;;;;;;;;;;12.44;60.49;100738.69;4390018;32;19986;-88
2022/01/02 03:01:25;;;;;;;;;;;;;;;12.52;60.06;100734.56;4380817;32;19994;-86
2022/01/02 03:04:11;;;;;;;;;;;;;;;12.47;59.99;100737.88;4388242;32;20005;-88
2022/01/02 03:06:57;;;;;;;;;;;;;;;12.65;59.52;100747.81;4383393;32;19990;-88
2022/01/02 03:09:47;;;;;;;;;;;;;;;12.76;59.12;100729.03;4389513;32;19991;-87
2022/01/02 03:12:33;;;;;;;;;;;;;;;12.86;58.82;100717.12;4445818;32;19977;-88
2022/01/02 03:15:20;;;;;;;;;;;;;;;12.96;58.30;100716.44;4453060;32;20432;-88
2022/01/02 03:18:05;;;;;;;;;;;;;;;12.91;58.26;100715.47;4477699;32;20353;-87
2022/01/02 03:20:51;;;;;;;;;;;;;;;12.92;58.09;100719.84;4477607;32;19985;-88
2022/01/02 03:23:36;;;;;;;;;;;;;;;12.95;57.78;100717.28;4473158;32;19981;-87
2022/01/02 03:26:22;;;;;;;;;;;;;;;12.88;57.74;100718.00;4460882;32;20121;-87
2022/01/02 03:29:08;;;;;;;;;;;;;;;12.62;58.35;100706.19;4451169;32;20368;-88
2022/01/02 03:31:53;;;;;;;;;;;;;;;12.42;59.17;100698.84;4468794;32;19989;-87
2022/01/02 03:34:39;;;;;;;;;;;;;;;12.33;59.71;100698.63;4432043;32;19986;-88
2022/01/02 03:37:29;;;;;;;;;;;;;;;12.40;59.32;100703.12;4377366;32;20035;-88
2022/01/02 03:40:14;;;;;;;;;;;;;;;12.10;60.66;100711.97;4383017;32;20457;-87
2022/01/02 03:42:59;;;;;;;;;;;;;;;11.91;61.39;100709.75;4381445;32;20388;-88
2022/01/02 03:45:46;;;;;;;;;;;;;;;12.37;59.99;100690.06;4381591;32;20351;-89
2022/01/02 03:48:32;;;;;;;;;;;;;;;12.64;59.09;100688.94;4385192;32;20048;-87
2022/01/02 03:51:22;;;;;;;;;;;;;;;12.77;58.52;100686.62;4384775;32;19987;-88
2022/01/02 03:54:08;;;;;;;;;;;;;;;12.82;57.82;100689.28;4382346;32;19982;-86
2022/01/02 03:56:54;;;;;;;;;;;;;;;12.77;57.14;100701.34;4389485;32;19978;-86
2022/01/02 03:59:40;;;;;;;;;;;;;;;12.67;57.09;100707.19;4382287;32;20098;-86
2022/01/02 04:02:27;;;;;;;;;;;;;;;12.76;55.97;100702.16;4381460;32;19990;-87
2022/01/02 04:05:14;;;;;;;;;;;;;;;12.60;56.26;100692.28;4370490;32;20029;-88
2022/01/02 04:08:00;;;;;;;;;;;;;;;12.53;56.34;100696.47;4387775;32;20739;-87
2022/01/02 04:10:46;;;;;;;;;;;;;;;12.60;55.73;100697.47;4391282;32;20310;-87
2022/01/02 04:13:31;;;;;;;;;;;;;;;12.61;55.41;100700.12;4396244;32;20060;-87
2022/01/02 04:16:17;;;;;;;;;;;;;;;12.56;55.45;100713.00;4397142;32;20041;-87
2022/01/02 04:19:03;;;;;;;;;;;;;;;12.59;54.59;100712.19;4396059;32;19990;-86
2022/01/02 04:21:49;;;;;;;;;;;;;;;12.44;54.67;100707.53;4390889;32;20328;-88
2022/01/02 04:24:35;;;;;;;;;;;;;;;12.50;54.81;100702.47;4396991;32;20050;-87
2022/01/02 04:27:21;;;;;;;;;;;;;;;12.34;55.46;100700.38;4385451;32;19979;-88
2022/01/02 04:30:09;;;;;;;;;;;;;;;12.18;55.27;100706.06;4397049;32;19990;-87
2022/01/02 04:32:56;;;;;;;;;;;;;;;12.09;54.88;100710.22;4395823;32;19991;-90
2022/01/02 04:35:41;;;;;;;;;;;;;;;11.96;55.01;100713.31;4395673;32;20035;-88
2022/01/02 04:38:28;;;;;;;;;;;;;;;11.97;55.52;100715.09;4397205;32;20459;-88
2022/01/02 04:41:14;;;;;;;;;;;;;;;12.01;55.05;100708.25;4385783;32;20049;-87
2022/01/02 04:44:00;;;;;;;;;;;;;;;11.94;55.10;100712.44;4396782;32;20814;-87
2022/01/02 04:46:47;;;;;;;;;;;;;;;11.99;54.81;100715.13;4389826;32;20806;-88
2022/01/02 04:49:34;;;;;;;;;;;;;;;11.87;55.43;100718.31;4391147;32;19986;-88
2022/01/02 04:52:19;;;;;;;;;;;;;;;11.72;55.77;100712.69;4383951;32;19998;-87
2022/01/02 04:55:05;;;;;;;;;;;;;;;11.69;55.96;100717.81;4384216;32;20001;-88
2022/01/02 04:57:50;;;;;;;;;;;;;;;11.66;55.50;100709.94;4384160;32;19990;-88
2022/01/02 05:00:36;;;;;;;;;;;;;;;11.59;55.86;100704.59;4384855;32;19990;-88
2022/01/02 05:03:21;;;;;;;;;;;;;;;11.41;56.20;100702.41;4389419;32;19983;-87
2022/01/02 05:06:07;;;;;;;;;;;;;;;11.60;55.31;100703.75;4383996;32;20009;-88
2022/01/02 05:08:53;;;;;;;;;;;;;;;11.38;55.95;100704.03;4393073;32;19986;-87
2022/01/02 05:11:40;;;;;;;;;;;;;;;11.30;56.93;100702.97;4384016;32;20795;-88
2022/01/02 05:14:25;;;;;;;;;;;;;;;11.34;56.92;100694.44;4383936;32;19979;-88
2022/01/02 05:17:11;;;;;;;;;;;;;;;11.32;56.82;100694.37;4391766;32;20006;-88
2022/01/02 05:19:57;;;;;;;;;;;;;;;11.32;56.55;100690.91;4385721;32;19999;-88
2022/01/02 05:22:42;;;;;;;;;;;;;;;11.24;56.05;100697.63;4382421;32;20053;-88
2022/01/02 05:25:28;;;;;;;;;;;;;;;11.08;56.23;100692.00;4387321;32;19971;-90
2022/01/02 05:28:14;;;;;;;;;;;;;;;11.08;56.01;100692.00;4385275;32;20005;-90
2022/01/02 05:31:00;;;;;;;;;;;;;;;11.01;55.99;100700.44;4410803;32;20531;-90
2022/01/02 05:33:47;;;;;;;;;;;;;;;10.90;56.16;100701.84;4382748;32;19991;-89
2022/01/02 05:36:33;;;;;;;;;;;;;;;10.92;55.60;100700.19;4384030;32;19986;-88
2022/01/02 05:39:19;;;;;;;;;;;;;;;10.99;55.03;100696.94;4397286;32;20596;-88
2022/01/02 05:42:06;;;;;;;;;;;;;;;11.06;54.50;100693.66;4398936;32;20778;-88
2022/01/02 05:44:52;;;;;;;;;;;;;;;11.00;54.97;100693.50;4095122;32;10000620;-88
2022/01/02 05:47:38;;;;;;;;;;;;;;;10.69;56.49;100682.28;4398118;32;19990;-88
2022/01/02 05:50:24;;;;;;;;;;;;;;;10.45;58.49;100686.72;4393737;32;19978;-88
2022/01/02 05:53:10;;;;;;;;;;;;;;;10.21;60.30;100682.53;4383540;32;20005;-89
2022/01/02 05:55:56;;;;;;;;;;;;;;;10.62;58.37;100679.44;4385847;32;20033;-90
2022/01/02 05:58:42;;;;;;;;;;;;;;;10.76;57.28;100674.69;4385506;32;20347;-89
2022/01/02 06:01:28;;;;;;;;;;;;;;;10.75;56.73;100670.31;4382114;32;19975;-88
2022/01/02 06:04:14;;;;;;;;;;;;;;;10.58;56.83;100673.31;4390602;32;20013;-88
2022/01/02 06:07:00;;;;;;;;;;;;;;;10.66;56.48;100671.84;4394281;32;19994;-89
2022/01/02 06:09:47;;;;;;;;;;;;;;;10.68;56.82;100670.16;4387242;32;19986;-89
2022/01/02 06:12:32;;;;;;;;;;;;;;;10.69;56.77;100677.09;4393636;32;19983;-89
2022/01/02 06:15:18;;;;;;;;;;;;;;;10.62;57.05;100669.09;4372683;32;20033;-89
2022/01/02 06:18:03;;;;;;;;;;;;;;;10.59;56.84;100669.91;4374813;32;19986;-88
2022/01/02 06:20:50;;;;;;;;;;;;;;;10.67;56.03;100668.41;4369978;32;19995;-89
2022/01/02 06:23:36;;;;;;;;;;;;;;;10.58;56.75;100673.31;4377219;32;19986;-89
2022/01/02 06:26:22;;;;;;;;;;;;;;;10.59;56.86;100675.09;4378602;32;20044;-88
2022/01/02 06:29:07;;;;;;;;;;;;;;;10.66;55.81;100671.84;4376585;32;20011;-88
2022/01/02 06:31:53;;;;;;;;;;;;;;;10.52;55.95;100672.25;4382789;32;19982;-88
2022/01/02 06:34:39;;;;;;;;;;;;;;;10.44;56.94;100679.78;4382959;32;19987;-89
2022/01/02 06:37:26;;;;;;;;;;;;;;;10.39;56.87;100676.19;4374263;32;20010;-87
2022/01/02 06:40:12;;;;;;;;;;;;;;;10.30;56.54;100675.91;4378208;32;20042;-90
2022/01/02 06:42:58;;;;;;;;;;;;;;;10.52;56.42;100683.47;4376158;32;20351;-88
2022/01/02 06:45:44;;;;;;;;;;;;;;;10.31;57.12;100682.84;4373569;32;19979;-90
2022/01/02 06:48:30;;;;;;;;;;;;;;;10.48;56.67;100681.63;4375641;32;20040;-89
2022/01/02 06:51:16;;;;;;;;;;;;;;;10.40;56.56;100677.94;4370849;32;20006;-84
2022/01/02 06:54:02;;;;;;;;;;;;;;;10.32;56.75;100679.41;4362503;32;19987;-84
2022/01/02 06:56:48;;;;;;;;;;;;;;;10.47;56.39;100679.91;4368355;32;20016;-90
2022/01/02 06:59:33;;;;;;;;;;;;;;;10.38;56.62;100679.62;4367035;32;20383;-87
2022/01/02 07:02:19;;;;;;;;;;;;;;;10.68;55.02;100683.09;4367926;32;20046;-86
2022/01/02 07:05:05;;;;;;;;;;;;;;;10.77;54.93;100694.56;4374026;32;19990;-85
2022/01/02 07:07:52;;;;;;;;;;;;;;;10.75;55.08;100688.44;4376544;32;19983;-87
2022/01/02 07:10:38;;;;;;;;;;;;;;;10.84;55.31;100691.31;4390387;32;20066;-82
2022/01/02 07:13:23;;;;;;;;;;;;;;;11.07;54.47;100700.63;4384316;32;19998;-82
2022/01/02 07:16:09;;;;;;;;;;;;;;;11.26;54.02;100701.97;4388833;32;20024;-80
2022/01/02 07:18:54;;;;;;;;;;;;;;;11.40;53.75;100692.00;4382700;32;19979;-86
2022/01/02 07:21:40;;;;;;;;;;;;;;;11.50;53.58;100687.94;4384391;32;20039;-80
2022/01/02 07:24:26;;;;;;;;;;;;;;;11.44;53.40;100696.41;4391121;32;19994;-82
2022/01/02 07:27:12;;;;;;;;;;;;;;;11.25;54.38;100699.38;4380954;32;19998;-82
2022/01/02 07:29:58;;;;;;;;;;;;;;;11.27;54.65;100702.88;4387680;32;19974;-86
2022/01/02 07:32:44;;;;;;;;;;;;;;;11.17;54.66;100687.09;4395117;32;20061;-86
2022/01/02 07:35:30;;;;;;;;;;;;;;;11.10;55.31;100694.63;4387915;32;19995;-88
2022/01/02 07:38:35;;;;;;;;;;;;;;;11.23;55.45;100695.84;4390938;32;20041;-84
2022/01/02 07:41:21;;;;;;;;;;;;;;;11.10;55.71;100690.34;4384945;32;20344;-82
2022/01/02 07:44:06;;;;;;;;;;;;;;;11.28;55.47;100683.91;4384045;32;20381;-84
2022/01/02 07:46:52;;;;;;;;;;;;;;;11.28;55.61;100684.75;4389958;32;20027;-81
2022/01/02 07:49:37;;;;;;;;;;;;;;;11.36;55.69;100685.00;4391072;32;19994;-81
2022/01/02 07:52:22;;;;;;;;;;;;;;;11.61;55.19;100683.88;4382254;32;19982;-80
2022/01/02 07:55:08;;;;;;;;;;;;;;;11.57;55.53;100682.06;4388818;32;19997;-82
2022/01/02 07:57:53;;;;;;;;;;;;;;;11.70;55.81;100688.44;4366757;32;19990;-81
2022/01/02 08:00:39;;;;;;;;;;;;;;;11.66;56.46;100686.62;4362540;32;20733;-83
2022/01/02 08:03:25;;;;;;;;;;;;;;;11.73;56.61;100684.19;4365957;32;19979;-86
2022/01/02 08:06:10;;;;;;;;;;;;;;;11.96;56.43;100679.59;4357052;32;20082;-81
2022/01/02 08:08:56;;;;;;;;;;;;;;;12.26;56.27;100670.78;4366411;32;19991;-80
2022/01/02 08:11:41;;;;;;;;;;;;;;;12.34;55.64;100674.41;4367293;32;20501;-79
2022/01/02 08:14:33;;;;;;;;;;;;;;;12.52;55.63;100654.03;4356888;32;19993;-80
2022/01/02 08:17:18;;;;;;;;;;;;;;;12.57;56.03;100656.72;4381159;32;20017;-79
2022/01/02 08:32:17;;;;;;;;;;;;;;;14.45;52.61;100640.03;4471019;31;802176;-80
2022/01/02 08:35:02;;;;;;;;;;;;;;;14.45;52.61;100640.03;4497178;31;19995;-80
2022/01/02 08:37:47;;;;;;;;;;;;;;;13.93;54.07;100641.03;4504822;31;20032;-80
2022/01/02 08:40:36;;;;;;;;;;;;;;;14.04;53.41;100648.13;4491978;31;19984;-79
2022/01/02 08:43:21;;;;;;;;;;;;;;;13.99;54.38;100649.81;4505604;31;19995;-79
2022/01/02 08:46:06;;;;;;;;;;;;;;;14.22;54.20;100648.41;4500553;31;20521;-78
2022/01/02 08:48:52;;;;;;;;;;;;;;;14.07;54.41;100642.97;4487816;31;20000;-80
2022/01/02 08:51:42;;;;;;;;;;;;;;;14.63;53.60;100629.87;4489358;31;19977;-80
2022/01/02 08:54:27;;;;;;;;;;;;;;;14.70;52.81;100636.91;4495289;31;20010;-80
2022/01/02 08:57:12;;;;;;;;;;;;;;;14.82;52.99;100631.84;4500423;31;20012;-81
2022/01/02 08:59:58;;;;;;;;;;;;;;;15.04;52.63;100632.09;4499023;31;20012;-79
2022/01/02 09:02:43;;;;;;;;;;;;;;;14.86;53.05;100625.81;4504184;31;19984;-82
2022/01/02 09:05:28;;;;;;;;;;;;;;;15.28;51.76;100619.31;4502877;31;20050;-84
2022/01/02 09:08:14;;;;;;;;;;;;;;;15.16;52.05;100616.56;4501384;31;20006;-81
2022/01/02 09:10:59;;;;;;;;;;;;;;;15.27;51.86;100614.94;4505581;31;20875;-80
2022/01/02 09:13:45;;;;;;;;;;;;;;;15.23;52.03;100615.78;4495960;31;19972;-79
2022/01/02 09:16:30;;;;;;;;;;;;;;;15.56;51.81;100622.16;4505371;31;19999;-84
2022/01/02 09:19:16;;;;;;;;;;;;;;;15.49;52.05;100612.53;4505547;31;20000;-79
2022/01/02 09:22:02;;;;;;;;;;;;;;;15.48;52.15;100609.03;4496405;31;19980;-79
2022/01/02 09:24:48;;;;;;;;;;;;;;;15.78;50.93;100610.16;4490644;31;19976;-77
2022/01/02 09:27:34;;;;;;;;;;;;;;;15.78;51.70;100608.44;4497175;31;20002;-78
2022/01/02 09:30:19;;;;;;;;;;;;;;;15.90;51.06;100601.56;4483017;31;20000;-76
2022/01/02 09:33:08;;;;;;;;;;;;;;;15.96;51.05;100604.22;4467799;32;20039;-77
2022/01/02 09:35:53;;;;;;;;;;;;;;;15.76;52.13;100615.41;4468101;32;19980;-77
2022/01/02 09:38:39;;;;;;;;;;;;;;;15.93;50.72;100612.03;4466038;32;20015;-80
2022/01/02 09:41:25;;;;;;;;;;;;;;;16.15;51.71;100602.59;4474080;31;20008;-77
2022/01/02 09:44:11;;;;;;;;;;;;;;;16.26;50.15;100590.44;4466785;32;20908;-78
2022/01/02 09:46:56;;;;;;;;;;;;;;;16.24;49.06;100580.00;4456170;32;19993;-77
2022/01/02 09:49:41;;;;;;;;;;;;;;;16.18;49.58;100572.13;4428266;32;20066;-77
2022/01/02 09:52:27;;;;;;;;;;;;;;;16.26;48.38;100559.97;4446241;32;20272;-77
2022/01/02 09:54:54;;;;;;;;;;;;;;;16.25;49.86;100550.38;4435292;32;19990;-77
2022/01/02 09:57:21;;;;;;;;;;;;;;;16.26;49.05;100549.50;4433724;32;20030;-78
2022/01/02 09:59:47;;;;;;;;;;;;;;;16.23;48.68;100536.44;4431726;32;20103;-78
2022/01/02 10:02:14;;;;;;;;;;;;;;;16.42;48.89;100533.91;4432119;32;20318;-78
2022/01/02 10:04:42;;;;;;;;;;;;;;;16.18;47.54;100534.69;4444946;32;20467;-79
2022/01/02 10:07:31;;;;;;;;;;;;;;;15.91;48.78;100528.44;4435103;32;20444;-80
2022/01/02 10:09:58;;;;;;;;;;;;;;;15.74;48.65;100538.81;4433101;32;20001;-78
2022/01/02 10:12:26;;;;;;;;;;;;;;;15.80;47.80;100528.41;4459228;32;20318;-79
2022/01/02 10:15:06;;;;;;;;;;;;;;;15.69;47.63;100523.97;4456621;32;20446;-79
2022/01/02 10:17:52;;;;;;;;;;;;;;;15.61;47.20;100526.50;4460641;32;20262;-78
2022/01/02 10:20:23;;;;;;;;;;;;;;;15.15;48.91;100526.16;4440708;32;20040;-79
2022/01/02 10:23:03;;;;;;;;;;;;;;;15.38;48.15;100531.56;4416517;32;20738;-79
2022/01/02 10:25:37;;;;;;;;;;;;;;;16.05;47.08;100523.31;4447773;32;20027;-78
2022/01/02 10:28:16;;;;;;;;;;;;;;;16.05;47.39;100518.09;4437862;32;20009;-79
2022/01/02 10:30:47;;;;;;;;;;;;;;;16.10;45.55;100505.91;4435351;32;20037;-80
2022/01/02 10:33:14;;;;;;;;;;;;;;;16.15;45.42;100493.75;4430507;32;20034;-78
2022/01/02 10:35:41;;;;;;;;;;;;;;;15.90;46.32;100484.06;4432531;32;20029;-79
2022/01/02 10:38:13;;;;;;;;;;;;;;;15.68;46.27;100481.34;4431924;32;19992;-79
2022/01/02 10:40:41;;;;;;;;;;;;;;;16.33;45.24;100465.94;4438519;32;19985;-79
2022/01/02 10:43:26;;;;;;;;;;;;;;;16.33;46.63;100473.75;4432336;32;20047;-79
2022/01/02 10:45:55;;;;;;;;;;;;;;;16.11;45.24;100471.06;4454809;32;20011;-79
2022/01/02 10:48:31;;;;;;;;;;;;;;;16.20;45.89;100471.09;4445083;32;20045;-79
2022/01/02 10:51:07;;;;;;;;;;;;;;;15.86;47.01;100477.06;4452747;32;20320;-78
2022/01/02 10:53:38;;;;;;;;;;;;;;;16.22;45.70;100469.38;4454859;32;19993;-78
2022/01/02 10:56:06;;;;;;;;;;;;;;;16.16;45.50;100458.91;4461596;32;20024;-78
2022/01/02 10:58:34;;;;;;;;;;;;;;;16.21;45.57;100451.97;4463008;32;19980;-77
2022/01/02 11:01:03;;;;;;;;;;;;;;;16.84;43.58;100457.31;4457161;32;19988;-79
2022/01/02 11:03:30;;;;;;;;;;;;;;;16.33;44.77;100450.25;4433148;32;19999;-79
2022/01/02 11:05:59;;;;;;;;;;;;;;;16.22;45.59;100453.72;4450367;32;20024;-79
2022/01/02 11:08:26;;;;;;;;;;;;;;;16.04;46.04;100445.81;4454287;32;19982;-80
2022/01/02 11:10:54;;;;;;;;;;;;;;;16.18;46.22;100444.13;4455999;32;20047;-80
2022/01/02 11:13:20;;;;;;;;;;;;;;;16.44;45.19;100438.97;4433231;32;20046;-79
2022/01/02 11:15:47;;;;;;;;;;;;;;;16.14;45.02;100434.53;4431540;32;20349;-78
2022/01/02 11:18:14;;;;;;;;;;;;;;;15.46;47.41;100437.69;4427106;32;20028;-78
2022/01/02 11:20:41;;;;;;;;;;;;;;;15.79;47.81;100424.84;4433843;32;19985;-78
2022/01/02 11:23:10;;;;;;;;;;;;;;;15.88;46.56;100425.75;4428942;32;20011;-80
2022/01/02 11:25:40;;;;;;;;;;;;;;;15.38;48.42;100426.31;4425805;32;19982;-80
2022/01/02 11:28:26;;;;;;;;;;;;;;;15.39;49.02;100413.31;4461050;32;20496;-80
2022/01/02 11:30:53;;;;;;;;;;;;;;;15.77;47.95;100408.31;4455954;32;20000;-80
2022/01/02 11:33:28;;;;;;;;;;;;;;;15.54;49.14;100402.09;4453955;32;19995;-80
2022/01/02 11:35:56;;;;;;;;;;;;;;;15.83;47.33;100401.38;4459023;32;20294;-80
2022/01/02 11:38:26;;;;;;;;;;;;;;;15.30;49.47;100394.97;4428543;32;20031;-80
2022/01/02 11:40:52;;;;;;;;;;;;;;;16.11;47.39;100397.94;4436721;32;20013;-79
2022/01/02 11:43:35;;;;;;;;;;;;;;;15.87;47.16;100384.84;4453083;32;19977;-77
2022/01/02 11:46:15;;;;;;;;;;;;;;;16.38;45.84;100380.59;4453508;32;20017;-79
2022/01/02 11:48:42;;;;;;;;;;;;;;;16.48;46.71;100377.97;4422252;32;19995;-80
2022/01/02 11:51:09;;;;;;;;;;;;;;;16.32;47.20;100380.59;4424304;32;20042;-76
2022/01/02 11:53:36;;;;;;;;;;;;;;;16.24;47.35;100371.00;4430007;32;19985;-77
2022/01/02 11:56:03;;;;;;;;;;;;;;;16.56;45.72;100362.31;4425934;32;19996;-77
2022/01/02 11:58:44;;;;;;;;;;;;;;;16.40;46.16;100360.53;4429757;32;19982;-77
2022/01/02 12:01:11;;;;;;;;;;;;;;;16.44;45.97;100344.88;4434119;32;20036;-77
2022/01/02 12:03:42;;;;;;;;;;;;;;;16.13;47.66;100354.44;4453995;32;20001;-77
2022/01/02 12:06:17;;;;;;;;;;;;;;;16.19;46.75;100354.44;4430748;32;19993;-78
2022/01/02 12:08:44;;;;;;;;;;;;;;;16.27;46.99;100347.50;4414420;32;19982;-79
2022/01/02 12:11:30;;;;;;;;;;;;;;;16.59;46.27;100351.88;4439677;32;19982;-80
2022/01/02 12:14:07;;;;;;;;;;;;;;;16.69;45.86;100345.75;4419962;32;20005;-77
2022/01/02 12:16:39;;;;;;;;;;;;;;;16.35;46.39;100334.44;4414397;32;20410;-79
2022/01/02 12:19:06;;;;;;;;;;;;;;;16.16;46.79;100335.28;4419299;32;19990;-78
2022/01/02 12:21:33;;;;;;;;;;;;;;;15.77;47.58;100324.78;4415755;32;20036;-79
2022/01/02 12:24:02;;;;;;;;;;;;;;;15.89;47.70;100323.03;4415773;32;19982;-80
2022/01/02 12:26:33;;;;;;;;;;;;;;;15.63;48.62;100321.19;4433249;32;20009;-78
2022/01/02 12:29:02;;;;;;;;;;;;;;;15.78;48.02;100305.63;4427563;32;19988;-76
2022/01/02 12:31:33;;;;;;;;;;;;;;;15.80;48.43;100305.66;4434466;32;20722;-78
2022/01/02 12:34:03;;;;;;;;;;;;;;;15.46;48.98;100302.88;4410058;32;19997;-80
2022/01/02 12:36:30;;;;;;;;;;;;;;;15.79;48.50;100302.16;4409825;32;20035;-77
2022/01/02 12:39:01;;;;;;;;;;;;;;;15.79;48.91;100296.94;4418217;32;19989;-79
2022/01/02 12:41:28;;;;;;;;;;;;;;;15.79;48.89;100294.34;4403868;32;20029;-77
2022/01/02 12:43:59;;;;;;;;;;;;;;;15.74;49.19;100292.56;4413718;32;19981;-78
2022/01/02 12:46:45;;;;;;;;;;;;;;;16.12;48.56;100289.16;4421155;32;19990;-80
2022/01/02 12:49:13;;;;;;;;;;;;;;;16.13;48.15;100290.88;4408056;32;20004;-78
2022/01/02 12:51:41;;;;;;;;;;;;;;;16.25;48.65;100291.75;4410477;32;20014;-78
2022/01/02 12:54:10;;;;;;;;;;;;;;;16.12;47.93;100290.03;4419425;32;20036;-80
2022/01/02 12:56:39;;;;;;;;;;;;;;;16.47;47.19;100286.53;4434282;32;20023;-81
2022/01/02 12:59:25;;;;;;;;;;;;;;;16.60;47.19;100288.25;4408616;32;19981;-80
2022/01/02 13:01:56;;;;;;;;;;;;;;;16.61;47.17;100276.91;4437435;32;19978;-78
2022/01/02 13:04:24;;;;;;;;;;;;;;;16.57;46.92;100283.03;4411393;32;20412;-76
2022/01/02 13:06:52;;;;;;;;;;;;;;;16.56;47.18;100280.41;4404462;32;21383;-79
2022/01/02 13:09:22;;;;;;;;;;;;;;;16.47;47.83;100282.19;4412681;32;19986;-78
2022/01/02 13:11:49;;;;;;;;;;;;;;;16.33;48.48;100277.81;4413156;32;20016;-78
2022/01/02 13:14:43;;;;;;;;;;;;;;;16.32;48.52;100276.09;4410982;32;20035;-76
2022/01/02 13:17:14;;;;;;;;;;;;;;;15.89;49.94;100283.88;4411489;32;20000;-76
2022/01/02 13:19:42;;;;;;;;;;;;;;;16.38;48.64;100276.09;4407999;32;19993;-76
2022/01/02 13:22:14;;;;;;;;;;;;;;;16.21;49.24;100276.97;4407955;32;20009;-81
2022/01/02 13:24:41;;;;;;;;;;;;;;;16.41;48.51;100265.62;4406106;32;20016;-77
2022/01/02 13:27:08;;;;;;;;;;;;;;;16.32;49.22;100265.62;4402655;32;19993;-76
2022/01/02 13:29:35;;;;;;;;;;;;;;;16.14;49.49;100256.06;4400241;32;20015;-80
2022/01/02 13:32:18;;;;;;;;;;;;;;;16.18;49.59;100253.47;4416301;32;20882;-79
2022/01/02 13:34:59;;;;;;;;;;;;;;;16.37;49.35;100250.81;4405710;32;19986;-80
2022/01/02 13:37:43;;;;;;;;;;;;;;;16.30;49.46;100256.91;4407187;32;20043;-80
2022/01/02 13:40:19;;;;;;;;;;;;;;;16.37;49.45;100248.19;4410735;32;20019;-81
2022/01/02 13:42:52;;;;;;;;;;;;;;;16.39;49.57;100241.25;4410506;32;20002;-81
2022/01/02 13:45:22;;;;;;;;;;;;;;;16.01;50.70;100239.50;4408901;32;19990;-82
2022/01/02 13:48:11;;;;;;;;;;;;;;;16.14;50.62;100236.03;4410790;32;19993;-81
2022/01/02 13:50:39;;;;;;;;;;;;;;;16.21;50.45;100237.78;4391896;32;20019;-82
2022/01/02 13:53:14;;;;;;;;;;;;;;;15.78;51.70;100232.53;4413888;32;20780;-80
2022/01/02 13:55:43;;;;;;;;;;;;;;;15.94;51.32;100233.41;4403035;32;19977;-81
2022/01/02 13:58:15;;;;;;;;;;;;;;;16.10;50.94;100234.28;4395151;32;20045;-81
2022/01/02 14:00:55;;;;;;;;;;;;;;;16.23;50.53;100236.03;4435296;32;19985;-80
2022/01/02 14:03:35;;;;;;;;;;;;;;;16.13;50.83;100249.09;4420162;32;19999;-82
2022/01/02 14:06:11;;;;;;;;;;;;;;;15.88;51.38;100249.06;4406422;32;19977;-81
2022/01/02 14:08:39;;;;;;;;;;;;;;;16.22;50.67;100244.75;4408171;32;19986;-81